createdAt,value
2017-11-26T00:00:45.126Z,101446.82
2017-11-26T00:02:48.521Z,101449.44
2017-11-26T00:04:51.926Z,101449.02
2017-11-26T00:06:55.494Z,101451.72
2017-11-26T00:08:58.848Z,101456.27
2017-11-26T00:11:02.244Z,101452.14
2017-11-26T00:13:05.533Z,101459.81
2017-11-26T00:15:08.890Z,101453.14
2017-11-26T00:17:18.197Z,101458.55
2017-11-26T00:19:21.548Z,101457.70
2017-11-26T00:21:25.082Z,101459.90
2017-11-26T00:23:28.540Z,101464.88
2017-11-26T00:25:31.896Z,101468.00
2017-11-26T00:27:35.276Z,101467.15
2017-11-26T00:29:38.713Z,101465.80
2017-11-26T00:31:42.143Z,101468.92
2017-11-26T00:33:45.476Z,101475.79
2017-11-26T00:35:49.118Z,101479.30
2017-11-26T00:37:52.462Z,101477.14
2017-11-26T00:39:55.771Z,101475.79
2017-11-26T00:41:59.152Z,101479.92
2017-11-26T00:44:02.582Z,101479.49
2017-11-26T00:46:05.949Z,101484.39
2017-11-26T00:48:09.239Z,101485.32
2017-11-26T00:50:12.719Z,101488.87
2017-11-26T00:52:16.223Z,101490.72
2017-11-26T00:54:19.697Z,101490.72
2017-11-26T00:56:23.113Z,101494.27
2017-11-26T00:58:26.625Z,101491.14
2017-11-26T01:00:30.150Z,101493.42
2017-11-26T01:02:38.826Z,101494.34
2017-11-26T01:04:42.259Z,101494.34
2017-11-26T01:06:45.582Z,101489.38
2017-11-26T01:08:50.274Z,101482.62
2017-11-26T01:10:54.063Z,101490.30
2017-11-26T01:12:57.389Z,101477.22
2017-11-26T01:15:00.748Z,101497.47
2017-11-26T01:17:04.200Z,101482.62
2017-11-26T01:19:07.631Z,101489.88
2017-11-26T01:21:11.123Z,101495.27
2017-11-26T01:23:14.550Z,101502.53
2017-11-26T01:25:17.850Z,101500.25
2017-11-26T01:27:21.254Z,101502.95
2017-11-26T01:29:24.569Z,101508.77
2017-11-26T01:31:27.979Z,101508.77
2017-11-26T01:33:31.356Z,101512.33
2017-11-26T01:35:34.674Z,101505.14
2017-11-26T01:37:38.160Z,101507.00
2017-11-26T01:39:41.563Z,101510.97
2017-11-26T01:41:44.912Z,101504.72
2017-11-26T01:43:48.202Z,101503.38
2017-11-26T01:45:51.575Z,101499.83
2017-11-26T01:47:55.019Z,101500.67
2017-11-26T01:49:58.339Z,101496.62
2017-11-26T01:52:01.794Z,101497.55
2017-11-26T01:54:05.243Z,101493.50
2017-11-26T01:56:08.690Z,101493.92
2017-11-26T01:58:12.050Z,101497.97
2017-11-26T02:00:15.454Z,101504.72
2017-11-26T02:02:19.895Z,101508.27
2017-11-26T02:04:23.254Z,101504.30
2017-11-26T02:06:26.640Z,101504.72
2017-11-26T02:08:29.946Z,101504.72
2017-11-26T02:10:33.284Z,101507.93
2017-11-26T02:12:36.873Z,101512.83
2017-11-26T02:14:40.289Z,101512.83
2017-11-26T02:16:43.642Z,101516.45
2017-11-26T02:18:47.463Z,101512.91
2017-11-26T02:20:50.813Z,101516.95
2017-11-26T02:22:54.309Z,101519.58
2017-11-26T02:24:57.659Z,101515.61
2017-11-26T02:27:01.045Z,101512.83
2017-11-26T02:29:04.402Z,101513.25
2017-11-26T02:31:20.347Z,101513.83
2017-11-26T02:33:35.483Z,101520.58
2017-11-26T02:35:39.648Z,101532.73
2017-11-26T02:37:43.056Z,101528.69
2017-11-26T02:39:46.395Z,101527.75
2017-11-26T02:41:49.826Z,101521.93
2017-11-26T02:43:53.209Z,101525.56
2017-11-26T02:45:56.570Z,101521.51
2017-11-26T02:47:59.927Z,101542.61
2017-11-26T02:50:03.244Z,101520.58
2017-11-26T02:52:06.678Z,101531.38
2017-11-26T02:54:10.133Z,101528.18
2017-11-26T02:56:13.557Z,101524.63
2017-11-26T02:58:22.120Z,101534.08
2017-11-26T03:00:25.534Z,101531.50
2017-11-26T03:02:28.963Z,101531.89
2017-11-26T03:04:32.251Z,101527.45
2017-11-26T03:06:35.594Z,101531.38
2017-11-26T03:08:39.049Z,101537.63
2017-11-26T03:10:42.353Z,101534.08
2017-11-26T03:12:45.734Z,101538.55
2017-11-26T03:14:49.106Z,101532.73
2017-11-26T03:16:52.420Z,101537.20
2017-11-26T03:18:55.786Z,101540.75
2017-11-26T03:20:59.313Z,101547.16
2017-11-26T03:23:02.635Z,101531.38
2017-11-26T03:25:06.090Z,101529.11
2017-11-26T03:27:09.497Z,101531.30
2017-11-26T03:29:13.116Z,101526.41
2017-11-26T03:31:16.458Z,101529.61
2017-11-26T03:33:19.953Z,101528.26
2017-11-26T03:35:23.737Z,101533.66
2017-11-26T03:37:27.254Z,101530.03
2017-11-26T03:39:30.940Z,101527.84
2017-11-26T03:41:34.273Z,101530.03
2017-11-26T03:43:37.717Z,101529.19
2017-11-26T03:45:41.102Z,101528.80
2017-11-26T03:47:44.410Z,101525.56
2017-11-26T03:49:47.793Z,101536.36
2017-11-26T05:13:24.196Z,101543.81
2017-11-26T05:15:27.645Z,101545.41
2017-11-26T05:17:31.053Z,101541.01
2017-11-26T05:19:34.610Z,101547.41
2017-11-26T05:21:37.924Z,101540.40
2017-11-26T05:23:41.393Z,101544.20
2017-11-26T05:25:44.794Z,101542.09
2017-11-26T05:27:48.140Z,101545.37
2017-11-26T05:29:51.548Z,101548.22
2017-11-26T05:31:54.924Z,101543.59
2017-11-26T05:33:58.307Z,101546.95
2017-11-26T05:36:01.663Z,101546.72
2017-11-26T05:38:05.056Z,101544.25
2017-11-26T05:40:08.578Z,101547.72
2017-11-26T05:42:12.028Z,101547.53
2017-11-26T05:44:15.353Z,101542.47
2017-11-26T05:46:18.934Z,101545.52
2017-11-26T05:48:22.303Z,101548.14
2017-11-26T05:50:25.799Z,101550.76
2017-11-26T05:52:29.187Z,101547.05
2017-11-26T05:54:32.496Z,101542.08
2017-11-26T05:56:35.940Z,101546.44
2017-11-26T05:58:39.347Z,101545.52
2017-11-26T06:00:42.817Z,101547.71
2017-11-26T06:02:46.292Z,101547.12
2017-11-26T06:04:49.892Z,101546.28
2017-11-26T06:06:53.259Z,101547.12
2017-11-26T06:08:56.690Z,101545.78
2017-11-26T06:11:00.043Z,101550.17
2017-11-26T06:13:03.536Z,101553.80
2017-11-26T06:15:06.987Z,101556.39
2017-11-26T06:17:10.319Z,101559.52
2017-11-26T06:19:13.668Z,101561.78
2017-11-26T06:21:17.094Z,101565.84
2017-11-26T06:23:20.426Z,101559.94
2017-11-26T06:25:23.768Z,101564.41
2017-11-26T06:27:27.140Z,101563.98
2017-11-26T06:29:30.445Z,101572.51
2017-11-26T06:31:33.830Z,101570.66
2017-11-26T06:33:37.226Z,101567.53
2017-11-26T06:35:40.510Z,101571.08
2017-11-26T06:37:43.870Z,101574.20
2017-11-26T06:39:47.490Z,101571.92
2017-11-26T06:41:50.850Z,101574.62
2017-11-26T06:43:54.365Z,101568.72
2017-11-26T06:45:57.692Z,101570.16
2017-11-26T06:48:01.033Z,101567.80
2017-11-26T06:50:04.414Z,101568.30
2017-11-26T06:52:07.797Z,101576.40
2017-11-26T06:54:11.227Z,101579.41
2017-11-26T06:56:14.789Z,101574.12
2017-11-26T06:58:18.180Z,101585.34
2017-11-26T07:00:21.587Z,101581.30
2017-11-26T07:02:25.002Z,101584.39
2017-11-26T07:04:28.337Z,101588.44
2017-11-26T07:06:31.766Z,101582.11
2017-11-26T07:08:35.119Z,101588.36
2017-11-26T07:10:38.436Z,101586.16
2017-11-26T07:12:41.979Z,101583.89
2017-11-26T07:14:45.266Z,101588.36
2017-11-26T07:16:48.777Z,101587.94
2017-11-26T07:18:52.197Z,101589.70
2017-11-26T07:20:55.646Z,101603.63
2017-11-26T07:22:59.185Z,101610.46
2017-11-26T07:25:02.599Z,101605.41
2017-11-26T07:27:05.923Z,101612.66
2017-11-26T07:29:09.278Z,101618.98
2017-11-26T07:31:12.794Z,101615.28
2017-11-26T07:33:16.178Z,101624.73
2017-11-26T07:35:19.567Z,101632.33
2017-11-26T07:37:22.973Z,101629.70
2017-11-26T07:39:26.346Z,101631.05
2017-11-26T07:41:29.844Z,101631.05
2017-11-26T07:43:33.149Z,101638.66
2017-11-26T07:45:36.452Z,101631.91
2017-11-26T07:47:39.821Z,101641.78
2017-11-26T07:49:43.359Z,101652.58
2017-11-26T07:51:46.726Z,101639.50
2017-11-26T07:53:50.127Z,101649.80
2017-11-26T07:55:53.643Z,101652.08
2017-11-26T07:57:57.141Z,101651.66
2017-11-26T08:00:01.480Z,101651.16
2017-11-26T08:02:04.835Z,101653.73
2017-11-26T08:04:08.227Z,101642.63
2017-11-26T08:06:11.666Z,101644.40
2017-11-26T08:08:14.990Z,101654.78
2017-11-26T08:10:18.337Z,101649.80
2017-11-26T08:12:22.002Z,101652.50
2017-11-26T08:14:25.282Z,101661.02
2017-11-26T08:16:28.782Z,101660.48
2017-11-26T08:18:32.575Z,101663.73
2017-11-26T08:20:36.093Z,101671.41
2017-11-26T08:22:39.538Z,101671.83
2017-11-26T08:24:43.067Z,101674.53
2017-11-26T08:26:46.360Z,101670.05
2017-11-26T08:28:49.678Z,101667.35
2017-11-26T08:30:53.051Z,101673.56
2017-11-26T08:32:56.428Z,101675.77
2017-11-26T08:34:59.722Z,101672.64
2017-11-26T08:37:03.067Z,101676.27
2017-11-26T08:39:06.464Z,101678.58
2017-11-26T08:41:09.900Z,101680.74
2017-11-26T08:43:13.387Z,101683.86
2017-11-26T08:45:17.087Z,101682.94
2017-11-26T08:47:20.396Z,101684.37
2017-11-26T08:49:24.334Z,101693.23
2017-11-26T08:51:27.823Z,101682.52
2017-11-26T08:53:31.232Z,101691.04
2017-11-26T08:55:34.730Z,101686.14
2017-11-26T08:57:38.244Z,101686.06
2017-11-26T08:59:41.551Z,101681.59
2017-11-26T09:01:44.896Z,101693.73
2017-11-26T09:03:48.457Z,101690.19
2017-11-26T09:05:51.764Z,101689.69
2017-11-26T09:07:57.760Z,101696.79
2017-11-26T09:10:01.167Z,101703.53
2017-11-26T09:12:04.475Z,101700.84
2017-11-26T09:14:07.818Z,101707.09
2017-11-26T09:16:11.450Z,101700.76
2017-11-26T09:18:14.942Z,101693.58
2017-11-26T09:20:18.369Z,101692.73
2017-11-26T09:22:21.692Z,101700.84
2017-11-26T09:24:25.108Z,101702.11
2017-11-26T09:26:28.614Z,101705.66
2017-11-26T09:28:31.909Z,101702.53
2017-11-26T09:30:35.323Z,101709.78
2017-11-26T09:32:38.834Z,101711.45
2017-11-26T09:34:42.294Z,101712.41
2017-11-26T09:36:45.636Z,101716.96
2017-11-26T09:38:49.004Z,101720.51
2017-11-26T09:40:52.554Z,101718.73
2017-11-26T09:42:56.758Z,101720.90
2017-11-26T09:45:00.146Z,101713.76
2017-11-26T09:47:03.492Z,101721.75
2017-11-26T09:49:06.850Z,101718.97
2017-11-26T09:51:10.192Z,101728.08
2017-11-26T09:53:13.518Z,101725.30
2017-11-26T09:55:16.912Z,101719.89
2017-11-26T09:57:20.332Z,101722.09
2017-11-26T09:59:23.684Z,101717.63
2017-11-26T10:01:27.036Z,101709.52
2017-11-26T10:03:30.367Z,101723.88
2017-11-26T10:05:33.706Z,101723.37
2017-11-26T10:07:37.268Z,101722.52
2017-11-26T10:09:40.583Z,101718.81
2017-11-26T10:11:43.947Z,101726.50
2017-11-26T10:13:47.506Z,101726.50
2017-11-26T10:15:50.891Z,101729.09
2017-11-26T10:17:54.260Z,101735.76
2017-11-26T10:19:57.568Z,101723.19
2017-11-26T10:22:00.990Z,101728.59
2017-11-26T10:24:04.314Z,101723.61
2017-11-26T10:26:07.897Z,101723.11
2017-11-26T10:28:12.207Z,101719.48
2017-11-26T10:30:15.807Z,101717.63
2017-11-26T10:32:19.257Z,101714.92
2017-11-26T10:34:22.666Z,101720.33
2017-11-26T10:36:25.950Z,101714.92
2017-11-26T10:38:29.347Z,101723.95
2017-11-26T10:40:32.761Z,101723.88
2017-11-26T10:42:36.139Z,101726.08
2017-11-26T10:44:39.510Z,101726.47
2017-11-26T10:46:42.817Z,101718.47
2017-11-26T10:48:46.227Z,101714.84
2017-11-26T10:50:49.571Z,101724.72
2017-11-26T10:52:53.014Z,101718.79
2017-11-26T10:54:56.400Z,101717.86
2017-11-26T10:56:59.754Z,101724.19
2017-11-26T10:59:03.085Z,101729.09
2017-11-26T11:01:06.576Z,101732.64
2017-11-26T11:03:09.975Z,101732.14
2017-11-26T11:05:13.435Z,101731.29
2017-11-26T11:07:16.855Z,101730.36
2017-11-26T11:09:20.234Z,101726.23
2017-11-26T11:11:23.743Z,101736.19
2017-11-26T11:13:27.235Z,101725.38
2017-11-26T11:15:30.727Z,101732.06
2017-11-26T11:17:34.153Z,101727.51
2017-11-26T11:19:37.567Z,101744.02
2017-11-26T11:21:40.845Z,101734.66
2017-11-26T11:23:44.420Z,101731.38
2017-11-26T11:25:47.835Z,101734.50
2017-11-26T11:27:51.237Z,101730.87
2017-11-26T11:29:54.683Z,101744.30
2017-11-26T11:31:58.071Z,101734.00
2017-11-26T11:34:01.414Z,101743.37
2017-11-26T11:36:04.951Z,101742.52
2017-11-26T11:38:08.413Z,101731.22
2017-11-26T11:40:11.703Z,101750.55
2017-11-26T11:42:15.077Z,101742.02
2017-11-26T11:44:18.555Z,101744.19
2017-11-26T11:46:21.911Z,101741.91
2017-11-26T11:48:25.352Z,101738.78
2017-11-26T11:50:28.709Z,101735.58
2017-11-26T11:52:32.080Z,101736.00
2017-11-26T11:54:35.527Z,101739.13
2017-11-26T11:56:38.834Z,101733.30
2017-11-26T11:58:42.220Z,101734.66
2017-11-26T12:00:45.539Z,101740.48
2017-11-26T12:02:48.885Z,101741.83
2017-11-26T12:04:52.294Z,101754.41
2017-11-26T12:06:55.629Z,101753.48
2017-11-26T12:08:58.933Z,101751.28
2017-11-26T12:11:02.336Z,101744.03
2017-11-26T12:13:05.682Z,101753.06
2017-11-26T12:15:09.849Z,101758.46
2017-11-26T12:17:13.300Z,101746.73
2017-11-26T12:19:16.652Z,101764.28
2017-11-26T12:21:19.943Z,101749.51
2017-11-26T12:23:23.330Z,101753.48
2017-11-26T12:25:26.867Z,101755.84
2017-11-26T12:27:30.161Z,101751.28
2017-11-26T12:29:33.532Z,101751.28
2017-11-26T12:31:36.940Z,101744.03
2017-11-26T12:33:40.310Z,101748.16
2017-11-26T12:35:43.682Z,101747.16
2017-11-26T12:37:47.204Z,101761.16
2017-11-26T12:39:50.615Z,101753.56
2017-11-26T12:41:53.996Z,101758.96
2017-11-26T12:43:57.378Z,101760.23
2017-11-26T12:46:00.783Z,101745.88
2017-11-26T12:48:04.159Z,101746.73
2017-11-26T12:50:07.499Z,101755.69
2017-11-26T12:52:10.842Z,101759.73
2017-11-26T12:54:14.160Z,101747.16
2017-11-26T12:56:17.478Z,101748.50
2017-11-26T12:58:20.816Z,101744.03
2017-11-26T13:00:24.127Z,101752.98
2017-11-26T13:02:27.462Z,101750.78
2017-11-26T13:04:30.911Z,101751.63
2017-11-26T13:06:34.398Z,101756.95
2017-11-26T13:08:37.908Z,101755.60
2017-11-26T13:10:41.274Z,101757.38
2017-11-26T13:12:44.701Z,101760.08
2017-11-26T13:14:48.101Z,101760.08
2017-11-26T13:16:51.456Z,101763.70
2017-11-26T13:18:54.944Z,101757.38
2017-11-26T13:20:58.447Z,101770.77
2017-11-26T13:23:01.799Z,101761.75
2017-11-26T13:25:05.133Z,101764.02
2017-11-26T13:27:08.826Z,101769.34
2017-11-26T13:29:12.158Z,101779.66
2017-11-26T13:31:15.819Z,101774.25
2017-11-26T13:33:19.202Z,101767.58
2017-11-26T13:35:22.703Z,101776.09
2017-11-26T13:37:26.205Z,101772.05
2017-11-26T13:39:29.522Z,101771.97
2017-11-26T13:41:32.817Z,101787.33
2017-11-26T13:43:36.137Z,101780.16
2017-11-26T13:45:39.597Z,101772.05
2017-11-26T13:47:42.959Z,101786.91
2017-11-26T13:49:46.409Z,101789.11
2017-11-26T13:51:49.763Z,101782.93
2017-11-26T13:53:53.241Z,101793.73
2017-11-26T13:55:56.737Z,101798.28
2017-11-26T13:58:00.112Z,101792.88
2017-11-26T14:00:03.501Z,101801.41
2017-11-26T14:02:07.031Z,101790.61
2017-11-26T14:04:10.490Z,101800.48
2017-11-26T14:06:13.779Z,101789.79
2017-11-26T14:08:17.172Z,101784.39
2017-11-26T14:10:20.625Z,101783.86
2017-11-26T14:12:23.954Z,101788.75
2017-11-26T14:14:27.283Z,101787.91
2017-11-26T14:16:30.677Z,101790.53
2017-11-26T14:18:34.238Z,101789.26
2017-11-26T14:20:37.543Z,101795.08
2017-11-26T14:22:41.005Z,101792.80
2017-11-26T14:24:44.408Z,101800.91
2017-11-26T14:26:47.857Z,101804.11
2017-11-26T14:28:51.397Z,101807.66
2017-11-26T14:30:54.766Z,101804.96
2017-11-26T14:32:58.065Z,101806.73
2017-11-26T14:35:01.536Z,101809.02
2017-11-26T14:37:04.846Z,101808.52
2017-11-26T14:39:08.350Z,101804.54
2017-11-26T14:41:11.849Z,101805.81
2017-11-26T14:43:15.165Z,101807.66
2017-11-26T14:45:18.579Z,101819.31
2017-11-26T14:47:22.130Z,101823.37
2017-11-26T14:49:25.519Z,101819.81
2017-11-26T14:51:28.810Z,101826.14
2017-11-26T14:53:32.264Z,101820.75
2017-11-26T14:55:35.661Z,101831.97
2017-11-26T14:57:38.964Z,101830.13
2017-11-26T14:59:42.368Z,101831.05
2017-11-26T15:01:45.708Z,101835.52
2017-11-26T15:03:49.118Z,101826.57
2017-11-26T15:05:52.597Z,101831.13
2017-11-26T15:07:55.902Z,101837.30
2017-11-26T15:09:59.338Z,101839.58
2017-11-26T15:12:02.656Z,101840.92
2017-11-26T15:14:06.067Z,101830.63
2017-11-26T15:16:09.496Z,101837.73
2017-11-26T15:18:12.805Z,101835.10
2017-11-26T15:20:16.178Z,101837.37
2017-11-26T15:22:19.581Z,101836.95
2017-11-26T15:24:22.925Z,101832.40
2017-11-26T15:26:26.337Z,101825.22
2017-11-26T15:28:29.643Z,101825.99
2017-11-26T15:30:33.174Z,101836.45
2017-11-26T15:32:36.490Z,101831.05
2017-11-26T15:34:39.814Z,101840.50
2017-11-26T15:36:43.253Z,101837.88
2017-11-26T15:38:46.934Z,101840.08
2017-11-26T15:40:50.825Z,101845.05
2017-11-26T15:42:54.187Z,101843.81
2017-11-26T15:44:57.608Z,101839.23
2017-11-26T15:47:00.909Z,101847.44
2017-11-26T15:49:04.342Z,101844.20
2017-11-26T15:51:07.634Z,101843.81
2017-11-26T15:53:11.079Z,101842.04
2017-11-26T15:55:14.388Z,101854.20
2017-11-26T15:57:17.699Z,101845.23
2017-11-26T15:59:20.986Z,101851.99
2017-11-26T16:01:24.332Z,101856.55
2017-11-26T16:03:27.665Z,101852.41
2017-11-26T16:05:31.059Z,101857.47
2017-11-26T16:07:34.394Z,101861.95
2017-11-26T16:09:37.782Z,101856.55
2017-11-26T16:11:41.233Z,101860.59
2017-11-26T16:13:44.562Z,101862.02
2017-11-26T16:15:47.905Z,101866.08
2017-11-26T16:17:51.196Z,101864.30
2017-11-26T16:19:54.514Z,101861.59
2017-11-26T16:21:57.827Z,101869.77
2017-11-26T16:24:02.505Z,101868.42
2017-11-26T16:26:05.939Z,101882.36
2017-11-26T16:28:09.320Z,101876.95
2017-11-26T16:30:12.626Z,101879.66
2017-11-26T16:32:16.241Z,101881.93
2017-11-26T16:34:19.552Z,101879.34
2017-11-26T16:36:22.868Z,101878.41
2017-11-26T16:40:35.761Z,101877.14
2017-11-26T16:42:39.135Z,101881.62
2017-11-26T16:44:42.463Z,101883.04
2017-11-26T16:46:45.918Z,101894.27
2017-11-26T16:48:49.209Z,101886.67
2017-11-26T16:50:52.603Z,101897.05
2017-11-26T16:52:55.981Z,101891.64
2017-11-26T16:54:59.375Z,101897.13
2017-11-26T16:57:02.771Z,101892.57
2017-11-26T16:59:06.182Z,101904.30
2017-11-26T17:01:09.459Z,101897.97
2017-11-26T17:03:12.818Z,101901.59
2017-11-26T17:05:16.240Z,101894.95
2017-11-26T17:07:19.532Z,101903.55
2017-11-26T17:09:22.873Z,101905.76
2017-11-26T17:11:26.198Z,101903.55
2017-11-26T17:13:29.599Z,101904.91
2017-11-26T17:15:32.933Z,101908.53
2017-11-26T17:17:36.254Z,101909.88
2017-11-26T17:19:39.569Z,101909.88
2017-11-26T17:21:42.902Z,101917.14
2017-11-26T17:23:46.295Z,101922.46
2017-11-26T17:25:49.640Z,101919.84
2017-11-26T17:27:52.954Z,101917.21
2017-11-26T17:29:56.238Z,101923.04
2017-11-26T17:31:59.542Z,101922.61
2017-11-26T17:34:03.076Z,101919.06
2017-11-26T17:36:06.499Z,101922.69
2017-11-26T17:38:09.889Z,101923.61
2017-11-26T17:40:13.205Z,101922.80
2017-11-26T17:42:16.514Z,101926.84
2017-11-26T17:44:19.809Z,101923.30
2017-11-26T17:46:23.129Z,101922.88
2017-11-26T17:48:26.512Z,101926.84
2017-11-26T17:50:29.842Z,101928.70
2017-11-26T17:52:33.185Z,101929.70
2017-11-26T17:54:36.607Z,101931.47
2017-11-26T17:56:39.949Z,101935.09
2017-11-26T17:58:43.270Z,101935.09
2017-11-26T18:00:46.611Z,101942.77
2017-11-26T18:02:49.918Z,101948.60
2017-11-26T18:04:53.326Z,101940.58
2017-11-26T18:06:56.766Z,101944.63
2017-11-26T18:09:00.114Z,101938.30
2017-11-26T18:11:03.439Z,101947.33
2017-11-26T18:13:06.770Z,101938.80
2017-11-26T18:15:10.224Z,101948.25
2017-11-26T18:17:13.615Z,101945.13
2017-11-26T18:19:16.946Z,101945.55
2017-11-26T18:21:20.282Z,101950.64
2017-11-26T18:23:23.679Z,101952.84
2017-11-26T18:25:27.030Z,101953.76
2017-11-26T18:27:30.316Z,101948.86
2017-11-26T18:29:33.637Z,101958.73
2017-11-26T18:31:37.009Z,101953.34
2017-11-26T18:33:40.346Z,101955.61
2017-11-26T18:35:43.759Z,101951.63
2017-11-26T18:37:47.075Z,101952.06
2017-11-26T18:39:50.393Z,101960.59
2017-11-26T18:41:53.742Z,101957.11
2017-11-26T18:43:57.121Z,101961.59
2017-11-26T18:46:00.428Z,101952.13
2017-11-26T18:48:03.751Z,101949.94
2017-11-26T18:50:07.156Z,101955.33
2017-11-26T18:52:10.454Z,101953.13
2017-11-26T18:54:13.907Z,101950.11
2017-11-26T18:56:17.188Z,101954.48
2017-11-26T18:58:20.569Z,101958.22
2017-11-26T19:00:23.925Z,101956.86
2017-11-26T19:02:27.312Z,101956.44
2017-11-26T19:04:30.629Z,101956.94
2017-11-26T19:06:34.025Z,101959.22
2017-11-26T19:08:37.386Z,101960.98
2017-11-26T19:10:40.681Z,101954.73
2017-11-26T19:12:44.062Z,101955.16
2017-11-26T19:14:47.459Z,101954.66
2017-11-26T19:16:50.757Z,101960.56
2017-11-26T19:18:54.077Z,101961.48
2017-11-26T19:20:57.545Z,101960.56
2017-11-26T19:23:00.845Z,101967.31
2017-11-26T19:25:04.215Z,101966.04
2017-11-26T19:27:07.521Z,101970.44
2017-11-26T19:29:10.841Z,101963.69
2017-11-26T19:31:14.170Z,101961.98
2017-11-26T19:33:17.574Z,101964.19
2017-11-26T19:35:20.966Z,101964.69
2017-11-26T19:37:24.394Z,101975.06
2017-11-26T19:39:27.698Z,101971.02
2017-11-26T19:41:31.323Z,101968.31
2017-11-26T19:43:34.799Z,101974.64
2017-11-26T19:45:38.439Z,101972.05
2017-11-26T19:47:42.136Z,101971.55
2017-11-26T19:49:46.656Z,101972.05
2017-11-26T19:51:51.582Z,101963.52
2017-11-26T19:53:55.161Z,101966.22
2017-11-26T19:55:58.496Z,101959.97
2017-11-26T19:58:01.817Z,101972.13
2017-11-26T20:00:05.152Z,101961.31
2017-11-26T20:02:08.501Z,101959.12
2017-11-26T20:04:11.797Z,101957.77
2017-11-26T20:06:15.116Z,101952.37
2017-11-26T20:08:18.449Z,101961.81
2017-11-26T20:10:21.805Z,101960.47
2017-11-26T20:12:25.106Z,101961.39
2017-11-26T20:14:28.435Z,101960.55
2017-11-26T20:16:31.767Z,101955.14
2017-11-26T20:18:35.099Z,101953.80
2017-11-26T20:20:38.433Z,101953.80
2017-11-26T20:22:41.741Z,101954.30
2017-11-26T20:24:45.056Z,101954.72
2017-11-26T20:26:48.533Z,101956.60
2017-11-26T20:28:51.835Z,101955.25
2017-11-26T20:30:55.204Z,101963.35
2017-11-26T20:32:58.703Z,101952.55
2017-11-26T20:35:02.038Z,101960.23
2017-11-26T20:37:05.359Z,101957.52
2017-11-26T20:39:08.815Z,101963.42
2017-11-26T20:41:12.228Z,101963.00
2017-11-26T20:43:15.672Z,101957.17
2017-11-26T20:45:19.005Z,101962.08
2017-11-26T20:47:22.305Z,101970.25
2017-11-26T20:49:25.614Z,101969.83
2017-11-26T20:51:28.974Z,101975.65
2017-11-26T20:53:32.287Z,101969.83
2017-11-26T20:55:35.688Z,101968.47
2017-11-26T20:57:39.024Z,101964.42
2017-11-26T20:59:42.340Z,101967.12
2017-11-26T21:01:45.632Z,101963.15
2017-11-26T21:03:49.078Z,101964.07
2017-11-26T21:05:52.394Z,101971.67
2017-11-26T21:07:55.746Z,101975.30
2017-11-26T21:09:59.061Z,101966.34
2017-11-26T21:12:02.429Z,101964.17
2017-11-26T21:14:05.744Z,101958.78
2017-11-26T21:16:09.083Z,101969.58
2017-11-26T21:18:13.167Z,101966.88
2017-11-26T21:20:16.466Z,101966.88
2017-11-26T21:22:19.810Z,101960.95
2017-11-26T21:24:23.113Z,101966.88
2017-11-26T21:26:26.420Z,101962.83
2017-11-26T21:28:29.845Z,101958.78
2017-11-26T21:30:33.139Z,101961.98
2017-11-26T21:32:36.448Z,101953.03
2017-11-26T21:34:39.814Z,101949.41
2017-11-26T21:36:43.230Z,101950.25
2017-11-26T21:38:46.550Z,101953.45
2017-11-26T21:40:50.016Z,101949.41
2017-11-26T21:42:53.334Z,101948.05
2017-11-26T21:44:57.313Z,101955.73
2017-11-26T21:47:00.706Z,101950.33
2017-11-26T21:49:04.026Z,101948.98
2017-11-26T21:51:07.385Z,101953.53
2017-11-26T21:53:10.775Z,101951.25
2017-11-26T21:55:14.079Z,101961.63
2017-11-26T21:57:17.397Z,101956.73
2017-11-26T21:59:20.793Z,101954.88
2017-11-26T22:01:24.112Z,101956.66
2017-11-26T22:03:27.471Z,101966.10
2017-11-26T22:05:30.778Z,101965.67
2017-11-26T22:07:34.107Z,101960.77
2017-11-26T22:09:37.413Z,101959.85
2017-11-26T22:11:40.729Z,101959.50
2017-11-26T22:13:44.062Z,101964.83
2017-11-26T22:15:47.370Z,101961.20
2017-11-26T22:17:50.730Z,101963.05
2017-11-26T22:19:54.054Z,101958.50
2017-11-26T22:21:57.389Z,101960.85
2017-11-26T22:24:00.716Z,101955.87
2017-11-26T22:26:04.128Z,101957.65
2017-11-26T22:28:07.449Z,101960.35
2017-11-26T22:30:10.885Z,101959.50
2017-11-26T22:32:14.298Z,101960.85
2017-11-26T22:34:17.689Z,101963.55
2017-11-26T22:36:21.081Z,101968.55
2017-11-26T22:38:24.471Z,101981.09
2017-11-26T22:40:27.816Z,101973.11
2017-11-26T22:42:31.281Z,101972.18
2017-11-26T22:44:34.608Z,101973.11
2017-11-26T22:46:38.000Z,101966.78
2017-11-26T22:48:41.419Z,101973.00
2017-11-26T22:50:44.765Z,101982.98
2017-11-26T22:52:48.214Z,101978.40
2017-11-26T22:54:51.549Z,101967.20
2017-11-26T22:56:54.844Z,101969.98
2017-11-26T22:58:58.184Z,101969.55
2017-11-26T23:01:01.617Z,101978.94
2017-11-26T23:03:04.922Z,101969.48
2017-11-26T23:05:08.233Z,101966.36
2017-11-26T23:07:11.617Z,101971.33
2017-11-26T23:09:14.992Z,101977.66
2017-11-26T23:11:18.330Z,101975.38
2017-11-26T23:13:21.658Z,101980.36
2017-11-26T23:15:24.949Z,101982.98
2017-11-26T23:17:28.402Z,101974.95
2017-11-26T23:19:31.795Z,101964.16
2017-11-26T23:21:35.091Z,101969.98
2017-11-26T23:23:38.378Z,101971.33
2017-11-26T23:25:41.694Z,101956.48
2017-11-26T23:27:45.017Z,101951.50
2017-11-26T23:29:48.482Z,101953.86
2017-11-26T23:31:51.757Z,101949.73
2017-11-26T23:33:55.057Z,101955.98
2017-11-26T23:35:58.367Z,101953.70
2017-11-26T23:38:01.809Z,101955.56
2017-11-26T23:40:06.020Z,101947.53
2017-11-26T23:42:09.412Z,101945.26
2017-11-26T23:44:12.714Z,101953.36
2017-11-26T23:46:16.092Z,101948.88
2017-11-26T23:48:19.485Z,101947.03
2017-11-26T23:50:22.880Z,101946.18
2017-11-26T23:52:26.262Z,101948.45
2017-11-26T23:54:29.658Z,101938.93
2017-11-26T23:56:32.985Z,101941.20
2017-11-26T23:58:36.333Z,101944.83
